Tropical Cyclones
[Index]
Main Index Home Page Stock Weather Photos Extreme Storms Discussion Storm News and Storm Chasing Reports Tropical Cyclones / Hurricanes / Typhoons Weather Data and Links Wild Fires / Bushfires Weather Observation Techniques Weather Picture Catalogue Tornado Pictures and Reports Stock Video Footage and DVDs for sale
Season 2010-2011 Tropical Cyclone TROP-DISTURBANCE-01 Track Map
Season 2010-2011 Summaries (Operational Data): [AU] [SIO] [SPAC] [SH]
<<- Previous TC | 2010-2011 Season | Next TC ->>

click for intensity scale information  Lat/long Grid: Show Hide

 Date Labels: Show Hide

Operational Tropical Cyclone Data

Name: TROP-DISTURBANCE-01
Number: 11PA

24 Nov 2010 18:00 UTC to 30 Nov 2010 06:00 UTC

    date/time    lat    long     hPa   cat  kts
2010-11-24 18   15.4   170.2    1005                     
2010-11-24 21   14.3   164.2    1005                     
2010-11-25 06   15.4   166.1    1005                     
2010-11-25 18   14.6   166.0    1005                     
2010-11-26 00   15.2   167.0    1005                     
2010-11-26 06   16.0   170.8    1003                     
2010-11-26 18   16.1   171.4    1003         30          
2010-11-27 00   16.6   172.5    1003                     
2010-11-27 06   16.7   172.7    1002    1    35          
2010-11-27 12   16.9   174.2    1003                     
2010-11-27 18   17.5   172.5    1000    1    35          
2010-11-28 00   17.7   173.6    1000                     
2010-11-28 06   18.6   173.6    1000    1    35          
2010-11-28 18   19.5   175.5     999    1    35          
2010-11-29 00   22.1   177.8    1000                     
2010-11-29 06   22.0   178.1    1000    1    35          
2010-11-29 06   22.6   178.2    1000                     
2010-11-29 18   24.8   179.3W   1000    1    35          
2010-11-30 00   22.6   179.3    1000                     
2010-11-30 06   24.0   180.0    1000                     
Winds are 10-min average.

Tropical cyclone tracks developed by Michael Bath using operational warnings and advisories and Google Maps.


[Australian Severe Weather index] [Copyright Notice] [Email Contacts] [Search This Site] [Privacy Policy]
Document: tropical_cyclone_trop-disturbance-01.htm Updated: 2 May 2017